createdAt,value
2016-06-28T00:00:40.104Z,1006.24
2016-06-28T00:01:40.130Z,1006.26
2016-06-28T00:02:40.166Z,1006.24
2016-06-28T00:03:40.185Z,1006.26
2016-06-28T00:04:40.211Z,1006.28
2016-06-28T00:05:40.242Z,1006.25
2016-06-28T00:06:40.267Z,1006.23
2016-06-28T00:07:40.295Z,1006.23
2016-06-28T00:08:40.323Z,1006.25
2016-06-28T00:09:40.352Z,1006.28
2016-06-28T00:10:40.381Z,1006.23
2016-06-28T00:11:40.404Z,1006.26
2016-06-28T00:12:40.450Z,1006.25
2016-06-28T00:13:40.462Z,1006.28
2016-06-28T00:14:40.493Z,1006.22
2016-06-28T00:15:40.518Z,1006.23
2016-06-28T00:16:40.547Z,1006.23
2016-06-28T00:17:40.572Z,1006.2
2016-06-28T00:18:40.604Z,1006.22
2016-06-28T00:19:40.632Z,1006.19
2016-06-28T00:20:40.656Z,1006.24
2016-06-28T00:21:40.687Z,1006.2
2016-06-28T00:22:40.716Z,1006.19
2016-06-28T00:23:40.736Z,1006.21
2016-06-28T00:24:40.767Z,1006.19
2016-06-28T00:25:40.802Z,1006.18
2016-06-28T00:26:40.824Z,1006.1
2016-06-28T00:27:40.852Z,1006.08
2016-06-28T00:28:40.874Z,1006.08
2016-06-28T00:29:40.908Z,1006.1
2016-06-28T00:30:40.932Z,1006.13
2016-06-28T00:31:40.960Z,1006.09
2016-06-28T00:32:40.990Z,1006.07
2016-06-28T00:33:41.018Z,1006.1
2016-06-28T00:34:41.046Z,1006.08
2016-06-28T00:35:41.074Z,1006.08
2016-06-28T00:36:41.100Z,1006.09
2016-06-28T00:37:41.131Z,1006.09
2016-06-28T00:38:41.159Z,1006.07
2016-06-28T00:39:41.185Z,1006.09
2016-06-28T00:40:41.212Z,1006.01
2016-06-28T00:41:41.240Z,1006.04
2016-06-28T00:42:41.278Z,1006.08
2016-06-28T00:43:41.294Z,1006.06
2016-06-28T00:44:41.321Z,1006.05
2016-06-28T00:45:41.365Z,1006.05
2016-06-28T00:46:41.381Z,1006.07
2016-06-28T00:47:41.401Z,1006.05
2016-06-28T00:48:41.438Z,1006.03
2016-06-28T00:49:41.460Z,1006.03
2016-06-28T00:50:41.489Z,1006
2016-06-28T00:51:41.514Z,1006.04
2016-06-28T00:52:41.546Z,1006.03
2016-06-28T00:53:41.571Z,1006.07
2016-06-28T00:54:41.596Z,1005.98
2016-06-28T00:55:41.623Z,1006.03
2016-06-28T00:56:41.649Z,1005.99
2016-06-28T00:57:41.677Z,1005.99
2016-06-28T00:58:41.707Z,1005.96
2016-06-28T00:59:41.742Z,1005.95
2016-06-28T01:00:41.765Z,1005.92
2016-06-28T01:01:41.791Z,1005.87
2016-06-28T01:02:41.817Z,1005.87
2016-06-28T01:03:41.843Z,1005.89
2016-06-28T01:04:41.866Z,1005.84
2016-06-28T01:05:41.901Z,1005.85
2016-06-28T01:06:41.924Z,1005.85
2016-06-28T01:07:41.952Z,1005.85
2016-06-28T01:08:41.979Z,1005.85
2016-06-28T01:09:42.007Z,1005.84
2016-06-28T01:10:42.040Z,1005.84
2016-06-28T01:11:42.061Z,1005.84
2016-06-28T01:12:42.097Z,1005.83
2016-06-28T01:13:42.119Z,1005.84
2016-06-28T01:14:42.145Z,1005.83
2016-06-28T01:15:42.169Z,1005.84
2016-06-28T01:16:42.203Z,1005.84
2016-06-28T01:17:42.227Z,1005.86
2016-06-28T01:18:42.253Z,1005.84
2016-06-28T01:19:42.283Z,1005.87
2016-06-28T01:20:42.305Z,1005.84
2016-06-28T01:21:42.335Z,1005.85
2016-06-28T01:22:42.364Z,1005.83
2016-06-28T01:23:42.391Z,1005.82
2016-06-28T01:24:42.423Z,1005.85
2016-06-28T01:25:42.449Z,1005.8
2016-06-28T01:26:42.474Z,1005.82
2016-06-28T01:27:42.500Z,1005.83
2016-06-28T01:28:42.525Z,1005.82
2016-06-28T01:29:42.553Z,1005.82
2016-06-28T01:30:42.578Z,1005.8
2016-06-28T01:31:42.606Z,1005.81
2016-06-28T01:32:42.637Z,1005.83
2016-06-28T01:33:42.663Z,1005.78
2016-06-28T01:34:42.687Z,1005.79
2016-06-28T01:35:42.715Z,1005.79
2016-06-28T01:36:42.746Z,1005.78
2016-06-28T01:37:42.771Z,1005.79
2016-06-28T01:38:42.803Z,1005.78
2016-06-28T01:39:42.824Z,1005.78
2016-06-28T01:40:42.866Z,1005.75
2016-06-28T01:41:42.898Z,1005.76
2016-06-28T01:42:42.915Z,1005.7
2016-06-28T01:43:42.938Z,1005.72
2016-06-28T01:44:42.971Z,1005.67
2016-06-28T01:45:43.096Z,1005.69
2016-06-28T01:46:43.019Z,1005.69
2016-06-28T01:47:43.044Z,1005.69
2016-06-28T01:48:43.072Z,1005.69
2016-06-28T01:49:43.097Z,1005.74
2016-06-28T01:50:43.125Z,1005.73
2016-06-28T01:51:43.156Z,1005.73
2016-06-28T01:52:43.182Z,1005.71
2016-06-28T01:53:43.285Z,1005.73
2016-06-28T01:54:43.234Z,1005.72
2016-06-28T01:55:43.262Z,1005.72
2016-06-28T01:56:43.283Z,1005.7
2016-06-28T01:57:43.310Z,1005.71
2016-06-28T01:58:43.343Z,1005.69
2016-06-28T01:59:43.375Z,1005.68
2016-06-28T02:00:43.394Z,1005.7
2016-06-28T02:01:43.421Z,1005.71
2016-06-28T02:02:43.448Z,1005.66
2016-06-28T02:03:43.475Z,1005.71
2016-06-28T02:04:43.503Z,1005.7
2016-06-28T02:05:43.528Z,1005.68
2016-06-28T02:06:43.558Z,1005.68
2016-06-28T02:07:43.578Z,1005.69
2016-06-28T02:08:43.607Z,1005.68
2016-06-28T02:09:43.635Z,1005.65
2016-06-28T02:10:43.682Z,1005.66
2016-06-28T02:11:43.688Z,1005.66
2016-06-28T02:12:43.715Z,1005.68
2016-06-28T02:13:43.750Z,1005.67
2016-06-28T02:14:43.769Z,1005.66
2016-06-28T02:15:43.799Z,1005.66
2016-06-28T02:16:43.824Z,1005.65
2016-06-28T02:17:43.858Z,1005.66
2016-06-28T02:18:43.883Z,1005.65
2016-06-28T02:19:43.902Z,1005.68
2016-06-28T02:20:43.929Z,1005.65
2016-06-28T02:21:43.962Z,1005.67
2016-06-28T02:22:43.984Z,1005.67
2016-06-28T02:23:44.012Z,1005.71
2016-06-28T02:24:44.041Z,1005.7
2016-06-28T02:25:44.065Z,1005.73
2016-06-28T02:26:44.085Z,1005.72
2016-06-28T02:27:44.109Z,1005.75
2016-06-28T02:28:44.138Z,1005.74
2016-06-28T02:29:44.163Z,1005.75
2016-06-28T02:30:44.190Z,1005.72
2016-06-28T02:31:44.218Z,1005.74
2016-06-28T02:32:44.242Z,1005.76
2016-06-28T02:33:44.283Z,1005.7
2016-06-28T02:34:44.299Z,1005.71
2016-06-28T02:35:44.329Z,1005.69
2016-06-28T02:36:44.349Z,1005.72
2016-06-28T02:37:44.384Z,1005.7
2016-06-28T02:38:44.403Z,1005.7
2016-06-28T02:39:44.431Z,1005.68
2016-06-28T02:40:44.471Z,1005.69
2016-06-28T02:41:44.493Z,1005.68
2016-06-28T02:42:44.513Z,1005.67
2016-06-28T02:43:44.542Z,1005.68
2016-06-28T02:44:44.569Z,1005.68
2016-06-28T02:45:44.609Z,1005.73
2016-06-28T02:46:44.621Z,1005.75
2016-06-28T02:47:44.646Z,1005.74
2016-06-28T02:48:44.675Z,1005.74
2016-06-28T02:49:44.709Z,1005.69
2016-06-28T02:50:44.726Z,1005.76
2016-06-28T02:51:44.751Z,1005.8
2016-06-28T02:52:44.778Z,1005.77
2016-06-28T02:53:44.806Z,1005.72
2016-06-28T02:54:44.836Z,1005.75
2016-06-28T02:55:44.863Z,1005.75
2016-06-28T02:56:44.901Z,1005.73
2016-06-28T02:57:44.951Z,1005.72
2016-06-28T02:58:44.943Z,1005.77
2016-06-28T02:59:44.967Z,1005.77
2016-06-28T03:00:44.990Z,1005.75
2016-06-28T03:01:45.020Z,1005.78
2016-06-28T03:02:45.049Z,1005.78
2016-06-28T03:03:45.078Z,1005.79
2016-06-28T03:04:45.171Z,1005.8
2016-06-28T03:05:45.129Z,1005.84
2016-06-28T03:06:45.151Z,1005.81
2016-06-28T03:07:45.177Z,1005.8
2016-06-28T03:08:45.206Z,1005.81
2016-06-28T03:09:45.236Z,1005.82
2016-06-28T03:10:45.274Z,1005.8
2016-06-28T03:11:45.288Z,1005.77
2016-06-28T03:12:45.317Z,1005.81
2016-06-28T03:13:45.341Z,1005.78
2016-06-28T03:14:45.376Z,1005.84
2016-06-28T03:15:45.394Z,1005.83
2016-06-28T03:16:45.436Z,1005.84
2016-06-28T03:17:45.455Z,1005.86
2016-06-28T03:18:45.480Z,1005.84
2016-06-28T03:19:45.501Z,1005.82
2016-06-28T03:20:45.530Z,1005.83
2016-06-28T03:21:45.548Z,1005.82
2016-06-28T03:22:45.579Z,1005.84
2016-06-28T03:23:45.606Z,1005.83
2016-06-28T03:24:45.636Z,1005.86
2016-06-28T03:25:45.657Z,1005.87
2016-06-28T03:26:45.682Z,1005.85
2016-06-28T03:27:45.709Z,1005.81
2016-06-28T03:28:45.745Z,1005.81
2016-06-28T03:29:45.762Z,1005.85
2016-06-28T03:30:45.796Z,1005.87
2016-06-28T03:31:45.818Z,1005.87
2016-06-28T03:32:45.843Z,1005.86
2016-06-28T03:33:45.872Z,1005.85
2016-06-28T03:34:45.895Z,1005.86
2016-06-28T03:35:45.929Z,1005.9
2016-06-28T03:36:45.951Z,1005.91
2016-06-28T03:37:45.979Z,1005.89
2016-06-28T03:38:45.999Z,1005.91
2016-06-28T03:39:46.030Z,1005.9
2016-06-28T03:40:46.057Z,1005.93
2016-06-28T03:41:46.082Z,1005.9
2016-06-28T03:42:46.106Z,1005.86
2016-06-28T03:43:46.140Z,1005.9
2016-06-28T03:44:46.160Z,1005.9
2016-06-28T03:45:46.188Z,1005.88
2016-06-28T03:46:46.213Z,1005.86
2016-06-28T03:47:46.269Z,1005.83
2016-06-28T03:48:46.268Z,1005.87
2016-06-28T03:49:46.295Z,1005.92
2016-06-28T03:50:46.318Z,1005.94
2016-06-28T03:51:46.349Z,1005.94
2016-06-28T03:52:46.376Z,1005.96
2016-06-28T03:53:46.402Z,1005.96
2016-06-28T03:54:46.426Z,1005.97
2016-06-28T03:55:46.455Z,1005.98
2016-06-28T03:56:46.485Z,1005.98
2016-06-28T03:57:46.503Z,1005.94
2016-06-28T03:58:46.535Z,1005.96
2016-06-28T03:59:46.561Z,1005.93
2016-06-28T04:00:46.586Z,1005.97
2016-06-28T04:01:46.619Z,1006
2016-06-28T04:02:46.641Z,1006
2016-06-28T04:03:46.665Z,1006.03
2016-06-28T04:04:46.705Z,1006.02
2016-06-28T04:05:46.713Z,1006.02
2016-06-28T04:06:46.744Z,1006.02
2016-06-28T04:07:46.785Z,1006.04
2016-06-28T04:08:46.796Z,1006.04
2016-06-28T04:09:46.819Z,1006
2016-06-28T04:10:46.850Z,1006.02
2016-06-28T04:11:46.876Z,1006
2016-06-28T04:12:46.906Z,1005.98
2016-06-28T04:13:46.929Z,1006
2016-06-28T04:14:46.956Z,1005.91
2016-06-28T04:15:46.986Z,1005.97
2016-06-28T04:16:47.005Z,1005.97
2016-06-28T04:17:47.035Z,1005.97
2016-06-28T04:18:47.061Z,1005.99
2016-06-28T04:19:47.084Z,1005.96
2016-06-28T04:20:47.109Z,1005.98
2016-06-28T04:21:47.139Z,1005.99
2016-06-28T04:22:47.164Z,1006.01
2016-06-28T04:23:47.193Z,1005.99
2016-06-28T04:24:47.218Z,1006.01
2016-06-28T04:25:47.246Z,1005.99
2016-06-28T04:26:47.305Z,1006.03
2016-06-28T04:27:47.299Z,1006.03
2016-06-28T04:28:47.329Z,1006.04
2016-06-28T04:29:47.357Z,1006.06
2016-06-28T04:30:47.390Z,1006.05
2016-06-28T04:31:47.416Z,1006.04
2016-06-28T04:32:47.443Z,1006
2016-06-28T04:33:47.467Z,1006.02
2016-06-28T04:34:47.498Z,1006.02
2016-06-28T04:35:47.523Z,1006.04
2016-06-28T04:36:47.552Z,1006.03
2016-06-28T04:37:47.583Z,1006.07
2016-06-28T04:38:47.603Z,1006.02
2016-06-28T04:39:47.625Z,1006.03
2016-06-28T04:40:47.656Z,1006.04
2016-06-28T04:41:47.677Z,1006.01
2016-06-28T04:42:47.706Z,1006.02
2016-06-28T04:43:47.733Z,1006.01
2016-06-28T04:44:47.759Z,1006.03
2016-06-28T04:45:47.786Z,1006.02
2016-06-28T04:46:47.811Z,1006.02
2016-06-28T04:47:47.840Z,1006.06
2016-06-28T04:48:47.867Z,1006.07
2016-06-28T04:49:47.889Z,1006.13
2016-06-28T04:50:47.916Z,1006.13
2016-06-28T04:51:47.944Z,1006.15
2016-06-28T04:52:47.969Z,1006.15
2016-06-28T04:53:47.997Z,1006.14
2016-06-28T04:54:48.022Z,1006.15
2016-06-28T04:55:48.050Z,1006.15
2016-06-28T04:56:48.074Z,1006.13
2016-06-28T04:57:48.103Z,1006.11
2016-06-28T04:58:48.134Z,1006.14
2016-06-28T04:59:48.155Z,1006.15
2016-06-28T05:00:48.181Z,1006.12
2016-06-28T05:01:48.221Z,1006.08
2016-06-28T05:02:48.231Z,1006.06
2016-06-28T05:03:48.271Z,1006.1
2016-06-28T05:04:48.296Z,1006.08
2016-06-28T05:05:48.313Z,1006.14
2016-06-28T05:06:48.341Z,1006.14
2016-06-28T05:07:48.371Z,1006.14
2016-06-28T05:08:48.426Z,1006.13
2016-06-28T05:09:48.419Z,1006.12
2016-06-28T05:10:48.446Z,1006.12
2016-06-28T05:11:48.472Z,1006.14
2016-06-28T05:12:48.506Z,1006.15
2016-06-28T05:13:48.533Z,1006.11
2016-06-28T05:14:48.555Z,1006.08
2016-06-28T05:15:48.583Z,1006.1
2016-06-28T05:16:48.611Z,1006.11
2016-06-28T05:17:48.631Z,1006.1
2016-06-28T05:18:48.662Z,1006.07
2016-06-28T05:19:48.681Z,1006.02
2016-06-28T05:20:48.704Z,1006.05
2016-06-28T05:21:48.729Z,1006.09
2016-06-28T05:22:48.759Z,1006.05
2016-06-28T05:23:48.787Z,1006.09
2016-06-28T05:24:48.810Z,1006.08
2016-06-28T05:25:48.836Z,1006.06
2016-06-28T05:26:48.861Z,1006.07
2016-06-28T05:27:48.887Z,1006.06
2016-06-28T05:28:48.915Z,1006.02
2016-06-28T05:29:48.946Z,1006.08
2016-06-28T05:30:48.967Z,1006.05
2016-06-28T05:31:48.996Z,1006.02
2016-06-28T05:32:49.024Z,1006
2016-06-28T05:33:49.052Z,1006.03
2016-06-28T05:34:49.076Z,1006.03
2016-06-28T05:35:49.102Z,1006.01
2016-06-28T05:36:49.127Z,1006.01
2016-06-28T05:37:49.164Z,1005.99
2016-06-28T05:38:49.183Z,1006.01
2016-06-28T05:39:49.215Z,1006.02
2016-06-28T05:40:49.238Z,1006.04
2016-06-28T05:41:49.262Z,1006.08
2016-06-28T05:42:49.293Z,1006.08
2016-06-28T05:43:49.340Z,1006.11
2016-06-28T05:44:49.342Z,1006.15
2016-06-28T05:45:49.367Z,1006.19
2016-06-28T05:46:49.401Z,1006.24
2016-06-28T05:47:49.427Z,1006.2
2016-06-28T05:48:49.453Z,1006.22
2016-06-28T05:49:49.526Z,1006.2
2016-06-28T05:50:49.507Z,1006.29
2016-06-28T05:51:49.535Z,1006.25
2016-06-28T05:52:49.557Z,1006.26
2016-06-28T05:53:49.590Z,1006.3
2016-06-28T05:54:49.609Z,1006.3
2016-06-28T05:55:49.638Z,1006.25
2016-06-28T05:56:49.768Z,1006.26
2016-06-28T05:57:49.696Z,1006.25
2016-06-28T05:58:49.718Z,1006.27
2016-06-28T05:59:49.746Z,1006.23
2016-06-28T06:00:49.772Z,1006.24
2016-06-28T06:01:49.799Z,1006.24
2016-06-28T06:02:49.827Z,1006.25
2016-06-28T06:03:49.851Z,1006.25
2016-06-28T06:04:49.882Z,1006.28
2016-06-28T06:05:49.907Z,1006.3
2016-06-28T06:06:49.933Z,1006.31
2016-06-28T06:07:49.962Z,1006.34
2016-06-28T06:08:49.989Z,1006.33
2016-06-28T06:09:50.013Z,1006.41
2016-06-28T06:10:50.041Z,1006.39
2016-06-28T06:11:50.070Z,1006.4
2016-06-28T06:12:50.098Z,1006.38
2016-06-28T06:13:50.126Z,1006.44
2016-06-28T06:14:50.152Z,1006.44
2016-06-28T06:15:50.176Z,1006.46
2016-06-28T06:16:50.201Z,1006.46
2016-06-28T06:17:50.230Z,1006.41
2016-06-28T06:18:50.255Z,1006.48
2016-06-28T06:19:50.280Z,1006.46
2016-06-28T06:20:50.314Z,1006.49
2016-06-28T06:21:50.338Z,1006.46
2016-06-28T06:22:50.366Z,1006.46
2016-06-28T06:23:50.410Z,1006.47
2016-06-28T06:24:50.418Z,1006.49
2016-06-28T06:25:50.452Z,1006.52
2016-06-28T06:26:50.474Z,1006.5
2016-06-28T06:27:50.504Z,1006.45
2016-06-28T06:28:50.526Z,1006.46
2016-06-28T06:29:50.582Z,1006.45
2016-06-28T06:30:50.582Z,1006.41
2016-06-28T06:31:50.610Z,1006.48
2016-06-28T06:32:50.649Z,1006.46
2016-06-28T06:33:50.718Z,1006.5
2016-06-28T06:34:50.696Z,1006.51
2016-06-28T06:35:50.717Z,1006.51
2016-06-28T06:36:50.744Z,1006.52
2016-06-28T06:37:50.831Z,1006.53
2016-06-28T06:38:50.799Z,1006.53
2016-06-28T06:39:50.823Z,1006.53
2016-06-28T06:40:50.867Z,1006.52
2016-06-28T06:41:50.881Z,1006.55
2016-06-28T06:42:50.979Z,1006.55
2016-06-28T06:43:50.936Z,1006.55
2016-06-28T06:44:50.967Z,1006.57
2016-06-28T06:45:50.990Z,1006.55
2016-06-28T06:46:51.024Z,1006.58
2016-06-28T06:47:51.051Z,1006.55
2016-06-28T06:48:51.074Z,1006.55
2016-06-28T06:49:51.101Z,1006.55
2016-06-28T06:50:51.144Z,1006.58
2016-06-28T06:51:51.155Z,1006.58
2016-06-28T06:52:51.188Z,1006.61
2016-06-28T06:53:51.213Z,1006.59
2016-06-28T06:54:51.236Z,1006.57
2016-06-28T06:55:51.266Z,1006.59
2016-06-28T06:56:51.287Z,1006.59
2016-06-28T06:57:51.321Z,1006.53
2016-06-28T06:58:51.350Z,1006.6
2016-06-28T06:59:51.380Z,1006.6
2016-06-28T07:00:51.402Z,1006.59
2016-06-28T07:01:51.427Z,1006.57
2016-06-28T07:02:51.456Z,1006.58
2016-06-28T07:03:51.482Z,1006.56
2016-06-28T07:04:51.511Z,1006.57
2016-06-28T07:05:51.537Z,1006.55
2016-06-28T07:06:51.567Z,1006.51
2016-06-28T07:07:51.592Z,1006.55
2016-06-28T07:08:51.618Z,1006.53
2016-06-28T07:09:51.749Z,1006.55
2016-06-28T07:10:51.786Z,1006.54
2016-06-28T07:11:51.820Z,1006.49
2016-06-28T07:12:51.827Z,1006.5
2016-06-28T07:13:51.858Z,1006.53
2016-06-28T07:14:51.868Z,1006.53
2016-06-28T07:15:51.871Z,1006.52
2016-06-28T07:16:51.883Z,1006.5
2016-06-28T07:17:51.885Z,1006.47
2016-06-28T07:18:51.896Z,1006.5
2016-06-28T07:19:52.026Z,1006.49
2016-06-28T07:20:52.020Z,1006.47
2016-06-28T07:21:52.058Z,1006.55
2016-06-28T07:22:52.060Z,1006.48
2016-06-28T07:23:52.030Z,1006.49
2016-06-28T07:24:52.071Z,1006.47
2016-06-28T07:25:52.091Z,1006.5
2016-06-28T07:26:52.118Z,1006.44
2016-06-28T07:27:52.144Z,1006.46
2016-06-28T07:28:52.177Z,1006.46
2016-06-28T07:29:52.199Z,1006.46
2016-06-28T07:30:52.227Z,1006.48
2016-06-28T07:31:52.372Z,1006.49
2016-06-28T07:32:52.283Z,1006.47
2016-06-28T07:33:52.363Z,1006.49
2016-06-28T07:34:52.335Z,1006.5
2016-06-28T07:35:52.369Z,1006.53
2016-06-28T07:36:52.393Z,1006.52
2016-06-28T07:37:52.425Z,1006.55
2016-06-28T07:38:52.451Z,1006.59
2016-06-28T07:39:52.477Z,1006.61
2016-06-28T07:40:52.509Z,1006.64
2016-06-28T07:41:52.549Z,1006.62
2016-06-28T07:42:52.563Z,1006.63
2016-06-28T07:43:52.592Z,1006.66
2016-06-28T07:44:52.618Z,1006.61
2016-06-28T07:45:52.649Z,1006.65
2016-06-28T07:46:52.675Z,1006.67
2016-06-28T07:47:52.703Z,1006.7
2016-06-28T07:48:52.727Z,1006.71
2016-06-28T07:49:52.756Z,1006.7
2016-06-28T07:50:52.787Z,1006.69
2016-06-28T07:51:52.816Z,1006.69
2016-06-28T07:52:52.843Z,1006.7
2016-06-28T07:53:52.873Z,1006.68
2016-06-28T07:54:52.901Z,1006.69
2016-06-28T07:55:52.923Z,1006.71
2016-06-28T07:56:52.957Z,1006.73
2016-06-28T07:57:52.986Z,1006.7
2016-06-28T07:58:53.018Z,1006.69
2016-06-28T07:59:53.037Z,1006.69
2016-06-28T08:00:53.063Z,1006.74
2016-06-28T08:01:53.091Z,1006.72
2016-06-28T08:02:53.124Z,1006.73
2016-06-28T08:03:53.150Z,1006.71
2016-06-28T08:04:53.174Z,1006.67
2016-06-28T08:05:53.205Z,1006.7
2016-06-28T08:06:53.231Z,1006.69
2016-06-28T08:07:53.261Z,1006.72
2016-06-28T08:08:53.296Z,1006.7
2016-06-28T08:09:53.324Z,1006.74
2016-06-28T08:10:53.346Z,1006.74
2016-06-28T08:11:53.378Z,1006.72
2016-06-28T08:12:53.404Z,1006.71
2016-06-28T08:13:53.430Z,1006.75
2016-06-28T08:14:53.462Z,1006.74
2016-06-28T08:15:53.489Z,1006.73
2016-06-28T08:16:53.518Z,1006.76
2016-06-28T08:17:53.541Z,1006.71
2016-06-28T08:18:53.583Z,1006.7
2016-06-28T08:19:53.600Z,1006.75
2016-06-28T08:20:53.631Z,1006.76
2016-06-28T08:21:53.657Z,1006.74
2016-06-28T08:22:53.689Z,1006.79
2016-06-28T08:23:53.713Z,1006.76
2016-06-28T08:24:53.744Z,1006.79
2016-06-28T08:25:53.770Z,1006.74
2016-06-28T08:26:53.806Z,1006.78
2016-06-28T08:27:53.831Z,1006.78
2016-06-28T08:28:53.863Z,1006.8
2016-06-28T08:29:53.891Z,1006.8
2016-06-28T08:30:53.915Z,1006.79
2016-06-28T08:31:53.943Z,1006.79
2016-06-28T08:32:53.970Z,1006.82
2016-06-28T08:33:53.999Z,1006.8
2016-06-28T08:34:54.029Z,1006.82
2016-06-28T08:35:54.054Z,1006.83
2016-06-28T08:36:54.083Z,1006.81
2016-06-28T08:37:54.117Z,1006.82
2016-06-28T08:38:54.142Z,1006.79
2016-06-28T08:39:54.171Z,1006.8
2016-06-28T08:40:54.201Z,1006.78
2016-06-28T08:41:54.226Z,1006.82
2016-06-28T08:42:54.266Z,1006.8
2016-06-28T08:43:54.290Z,1006.85
2016-06-28T08:44:54.322Z,1006.87
2016-06-28T08:45:54.345Z,1006.85
2016-06-28T08:46:54.375Z,1006.84
2016-06-28T08:47:54.406Z,1006.83
2016-06-28T08:48:54.448Z,1006.83
2016-06-28T08:49:54.488Z,1006.86
2016-06-28T08:50:54.508Z,1006.87
2016-06-28T08:51:54.518Z,1006.85
2016-06-28T08:52:54.551Z,1006.86
2016-06-28T08:53:54.578Z,1006.85
2016-06-28T08:54:54.610Z,1006.91
2016-06-28T08:55:54.639Z,1006.96
2016-06-28T08:56:54.671Z,1006.95
2016-06-28T08:57:54.705Z,1006.97
2016-06-28T08:58:54.724Z,1006.97
2016-06-28T08:59:54.752Z,1006.96
2016-06-28T09:00:54.778Z,1006.98
2016-06-28T09:01:54.810Z,1007.02
2016-06-28T09:02:54.841Z,1007.01
2016-06-28T09:03:54.874Z,1007.05
2016-06-28T09:04:54.897Z,1007.06
2016-06-28T09:05:54.938Z,1007.02
2016-06-28T09:06:54.957Z,1007.02
2016-06-28T09:07:54.988Z,1007
2016-06-28T09:08:55.019Z,1006.99
2016-06-28T09:09:55.050Z,1006.98
2016-06-28T09:10:55.074Z,1007.01
2016-06-28T09:11:55.103Z,1007
2016-06-28T09:12:55.136Z,1006.97
2016-06-28T09:13:55.170Z,1007
2016-06-28T09:14:55.199Z,1007.03
2016-06-28T09:15:55.225Z,1007.01
2016-06-28T09:16:55.255Z,1006.98
2016-06-28T09:17:55.283Z,1006.96
2016-06-28T09:18:55.316Z,1006.92
2016-06-28T09:19:55.345Z,1006.94
2016-06-28T09:20:55.381Z,1006.92
2016-06-28T09:21:55.401Z,1006.88
2016-06-28T09:22:55.429Z,1006.92
2016-06-28T09:23:55.467Z,1006.92
2016-06-28T09:24:55.492Z,1006.92
2016-06-28T09:25:55.527Z,1006.93
2016-06-28T09:26:55.550Z,1006.91
2016-06-28T09:27:55.580Z,1006.92
2016-06-28T09:28:55.611Z,1006.85
2016-06-28T09:29:55.637Z,1006.89
2016-06-28T09:30:55.669Z,1006.89
2016-06-28T09:31:55.701Z,1006.87
2016-06-28T09:32:55.725Z,1006.85
2016-06-28T09:33:55.777Z,1006.83
2016-06-28T09:34:55.787Z,1006.84
2016-06-28T09:35:55.815Z,1006.86
2016-06-28T09:36:55.850Z,1006.84
2016-06-28T09:37:55.877Z,1006.85
2016-06-28T09:38:55.912Z,1006.89
2016-06-28T09:39:55.939Z,1006.89
2016-06-28T09:40:55.968Z,1006.89
2016-06-28T09:41:55.999Z,1006.9
2016-06-28T09:42:56.030Z,1006.92
2016-06-28T09:43:56.057Z,1006.86
2016-06-28T09:44:56.090Z,1006.83
2016-06-28T09:45:56.122Z,1006.78
2016-06-28T09:46:56.146Z,1006.8
2016-06-28T09:47:56.178Z,1006.78
2016-06-28T09:48:56.209Z,1006.8
2016-06-28T09:49:56.243Z,1006.81
2016-06-28T09:50:56.271Z,1006.81
2016-06-28T09:51:56.303Z,1006.79
2016-06-28T09:52:56.337Z,1006.78
2016-06-28T09:53:56.361Z,1006.74
2016-06-28T09:54:56.391Z,1006.74
2016-06-28T09:55:56.422Z,1006.74
2016-06-28T09:56:56.452Z,1006.71
2016-06-28T09:57:56.486Z,1006.67
2016-06-28T09:58:56.522Z,1006.72
2016-06-28T09:59:56.547Z,1006.75
2016-06-28T10:00:56.577Z,1006.77
2016-06-28T10:01:56.619Z,1006.75
2016-06-28T10:02:56.632Z,1006.76
2016-06-28T10:03:56.669Z,1006.81
2016-06-28T10:04:56.696Z,1006.8
2016-06-28T10:05:56.724Z,1006.81
2016-06-28T10:06:56.758Z,1006.77
2016-06-28T10:07:56.790Z,1006.74
2016-06-28T10:08:56.820Z,1006.79
2016-06-28T10:09:56.853Z,1006.78
2016-06-28T10:10:56.881Z,1006.77
2016-06-28T10:11:56.915Z,1006.76
2016-06-28T10:12:56.944Z,1006.76
2016-06-28T10:13:56.974Z,1006.72
2016-06-28T10:14:57.008Z,1006.73
2016-06-28T10:15:57.040Z,1006.71
2016-06-28T10:16:57.067Z,1006.69
2016-06-28T10:17:57.099Z,1006.73
2016-06-28T10:18:57.134Z,1006.75
2016-06-28T10:19:57.164Z,1006.73
2016-06-28T10:20:57.190Z,1006.69
2016-06-28T10:21:57.223Z,1006.7
2016-06-28T10:22:57.255Z,1006.66
2016-06-28T10:23:57.286Z,1006.64
2016-06-28T10:24:57.316Z,1006.68
2016-06-28T10:25:57.349Z,1006.62
2016-06-28T10:26:57.382Z,1006.64
2016-06-28T10:27:57.415Z,1006.64
2016-06-28T10:28:57.443Z,1006.66
2016-06-28T10:29:57.477Z,1006.63
2016-06-28T10:30:57.521Z,1006.59
2016-06-28T10:31:57.542Z,1006.6
2016-06-28T10:32:57.571Z,1006.61
2016-06-28T10:33:57.607Z,1006.58
2016-06-28T10:34:57.642Z,1006.53
2016-06-28T10:35:57.693Z,1006.56
2016-06-28T10:36:57.781Z,1006.62
2016-06-28T10:37:57.734Z,1006.6
2016-06-28T10:38:57.764Z,1006.63
2016-06-28T10:39:57.797Z,1006.61
2016-06-28T10:40:57.829Z,1006.61
2016-06-28T10:41:57.855Z,1006.64
2016-06-28T10:42:57.886Z,1006.63
2016-06-28T10:43:57.920Z,1006.63
2016-06-28T10:44:57.959Z,1006.64
2016-06-28T10:45:58.000Z,1006.63
2016-06-28T10:46:58.015Z,1006.62
2016-06-28T10:47:58.046Z,1006.61
2016-06-28T10:48:58.086Z,1006.6
2016-06-28T10:49:58.118Z,1006.56
2016-06-28T10:50:58.147Z,1006.59
2016-06-28T10:51:58.179Z,1006.48
2016-06-28T10:52:58.206Z,1006.5
2016-06-28T10:53:58.243Z,1006.47
2016-06-28T10:54:58.287Z,1006.43
2016-06-28T10:55:58.310Z,1006.46
2016-06-28T10:56:58.347Z,1006.43
2016-06-28T10:57:58.377Z,1006.43
2016-06-28T10:58:58.404Z,1006.45
2016-06-28T10:59:58.472Z,1006.49
2016-06-28T11:00:58.476Z,1006.42
2016-06-28T11:01:58.507Z,1006.46
2016-06-28T11:02:58.547Z,1006.47
2016-06-28T11:03:58.599Z,1006.41
2016-06-28T11:04:58.612Z,1006.4
2016-06-28T11:05:58.717Z,1006.42
2016-06-28T11:06:58.685Z,1006.41
2016-06-28T11:07:58.703Z,1006.43
2016-06-28T11:08:58.731Z,1006.43
2016-06-28T11:09:58.768Z,1006.43
2016-06-28T11:10:58.798Z,1006.42
2016-06-28T11:11:58.831Z,1006.43
2016-06-28T11:12:58.862Z,1006.44
2016-06-28T11:13:58.899Z,1006.34
2016-06-28T11:14:58.954Z,1006.33
2016-06-28T11:15:58.967Z,1006.35
2016-06-28T11:16:58.992Z,1006.32
2016-06-28T11:17:59.027Z,1006.27
2016-06-28T11:18:59.069Z,1006.29
2016-06-28T11:19:59.100Z,1006.34
2016-06-28T11:20:59.133Z,1006.31
2016-06-28T11:21:59.169Z,1006.33
2016-06-28T11:22:59.195Z,1006.3
2016-06-28T11:23:59.236Z,1006.31
2016-06-28T11:24:59.267Z,1006.32
2016-06-28T11:25:59.291Z,1006.3
2016-06-28T11:26:59.334Z,1006.28
2016-06-28T11:27:59.373Z,1006.3
2016-06-28T11:28:59.398Z,1006.25
2016-06-28T11:29:59.430Z,1006.26
2016-06-28T11:30:59.467Z,1006.2
2016-06-28T11:31:59.506Z,1006.24
2016-06-28T11:32:59.528Z,1006.24
2016-06-28T11:33:59.569Z,1006.26
2016-06-28T11:34:59.605Z,1006.27
2016-06-28T11:35:59.635Z,1006.2
2016-06-28T11:36:59.668Z,1006.26
2016-06-28T11:37:59.699Z,1006.22
2016-06-28T11:38:59.745Z,1006.21
2016-06-28T11:39:59.776Z,1006.31
2016-06-28T11:40:59.809Z,1006.26
2016-06-28T11:41:59.836Z,1006.16
2016-06-28T11:42:59.865Z,1006.11
2016-06-28T11:43:59.911Z,1006.06
2016-06-28T11:44:59.938Z,1006.08
2016-06-28T11:45:59.974Z,1006.08
2016-06-28T11:47:00.007Z,1006.1
2016-06-28T11:48:00.045Z,1006.08
2016-06-28T11:49:00.075Z,1006.04
2016-06-28T11:50:00.108Z,1006.02
2016-06-28T11:51:00.149Z,1005.97
2016-06-28T11:52:00.180Z,1006.01
2016-06-28T11:53:00.212Z,1005.99
2016-06-28T11:54:00.366Z,1006.01
2016-06-28T11:55:00.283Z,1006
2016-06-28T11:56:00.401Z,1006
2016-06-28T11:57:00.410Z,1005.93
2016-06-28T11:58:00.418Z,1005.99
2016-06-28T11:59:00.429Z,1005.98
2016-06-28T12:00:00.570Z,1005.93
2016-06-28T12:01:00.599Z,1005.99
2016-06-28T12:02:00.619Z,1006
2016-06-28T12:03:00.613Z,1005.98
2016-06-28T12:04:00.618Z,1005.96
2016-06-28T12:05:00.662Z,1005.95
2016-06-28T12:06:00.670Z,1005.91
2016-06-28T12:07:00.697Z,1005.9
2016-06-28T12:08:00.729Z,1005.94
2016-06-28T12:09:00.763Z,1005.92
2016-06-28T12:10:00.810Z,1005.91